createdAt,value
2022-10-05T00:10:53.627Z,88.90
2022-10-05T00:25:57.379Z,88.97
2022-10-05T00:41:13.133Z,88.73
2022-10-05T00:56:38.004Z,88.87
2022-10-05T01:11:49.486Z,88.94
2022-10-05T01:27:09.962Z,88.84
2022-10-05T01:42:19.695Z,88.93
2022-10-05T01:57:58.934Z,89.47
2022-10-05T02:13:33.009Z,89.54
2022-10-05T02:28:53.845Z,89.88
2022-10-05T02:44:11.532Z,89.92
2022-10-05T02:59:27.946Z,90.20
2022-10-05T03:15:02.988Z,90.04
2022-10-05T03:30:17.534Z,90.23
2022-10-05T03:45:47.728Z,90.06
2022-10-05T04:00:54.226Z,90.11
2022-10-05T04:16:06.260Z,90.12
2022-10-05T04:31:16.223Z,90.12
2022-10-05T04:46:39.553Z,90.32
2022-10-05T05:01:55.853Z,90.47
2022-10-05T05:17:19.347Z,90.21
2022-10-05T05:33:02.733Z,90.58
2022-10-05T05:48:19.303Z,90.93
2022-10-05T06:03:42.763Z,90.58
2022-10-05T06:18:52.430Z,90.46
2022-10-05T06:34:17.486Z,89.88
2022-10-05T06:49:34.946Z,89.50
2022-10-05T07:04:42.797Z,88.96
2022-10-05T07:20:21.003Z,87.10
2022-10-05T07:36:19.409Z,86.34
2022-10-05T07:52:17.166Z,84.63
2022-10-05T08:07:20.116Z,83.38
2022-10-05T08:22:31.844Z,81.30
2022-10-05T08:37:39.685Z,80.50
2022-10-05T08:53:12.574Z,79.91
2022-10-05T09:08:52.185Z,78.39
2022-10-05T09:24:17.083Z,77.34
2022-10-05T09:39:40.184Z,76.32
2022-10-05T09:55:10.824Z,75.30
2022-10-05T10:10:15.914Z,74.04
2022-10-05T10:25:20.889Z,72.48
2022-10-05T10:40:49.227Z,72.63
2022-10-05T10:56:15.821Z,71.94
2022-10-05T11:11:38.988Z,70.01
2022-10-05T11:26:55.725Z,69.32
2022-10-05T11:42:30.766Z,68.83
2022-10-05T11:58:00.980Z,68.78
2022-10-05T12:13:07.030Z,69.39
2022-10-05T12:28:13.063Z,69.91
2022-10-05T12:44:12.286Z,68.36
2022-10-05T12:59:41.394Z,68.27
2022-10-05T13:15:03.047Z,68.15
2022-10-05T13:30:21.593Z,68.14
2022-10-05T13:45:26.354Z,69.27
2022-10-05T14:00:28.606Z,69.87
2022-10-05T14:15:41.987Z,70.96
2022-10-05T14:30:59.375Z,71.93
2022-10-05T14:46:14.027Z,72.49
2022-10-05T15:01:39.845Z,73.44
2022-10-05T15:16:42.797Z,74.46
2022-10-05T15:32:19.869Z,75.76
2022-10-05T15:47:24.926Z,76.52
2022-10-05T16:02:37.718Z,77.48
2022-10-05T16:18:24.533Z,78.45
2022-10-05T16:33:32.669Z,79.41
2022-10-05T16:48:56.076Z,80.32
2022-10-05T17:04:03.914Z,81.40
2022-10-05T17:19:34.502Z,82.16
2022-10-05T17:34:37.608Z,83.25
2022-10-05T17:50:15.009Z,83.14
2022-10-05T18:05:29.185Z,83.87
2022-10-05T18:20:32.805Z,84.38
2022-10-05T18:35:40.671Z,84.49
2022-10-05T18:50:59.963Z,84.30
2022-10-05T19:06:12.839Z,84.69
2022-10-05T19:21:56.071Z,84.92
2022-10-05T19:37:31.270Z,85.39
2022-10-05T19:52:49.107Z,85.56
2022-10-05T20:07:51.972Z,85.67
2022-10-05T20:23:28.165Z,85.74
2022-10-05T20:38:31.939Z,86.21
2022-10-05T20:53:34.023Z,87.18
2022-10-05T21:08:37.359Z,87.24
2022-10-05T21:23:39.264Z,87.80
2022-10-05T21:38:42.224Z,88.33
2022-10-05T21:53:50.994Z,88.50
2022-10-05T22:08:53.108Z,88.75
2022-10-05T22:23:55.065Z,88.98
2022-10-05T22:38:57.070Z,88.94
2022-10-05T22:53:59.051Z,88.83
2022-10-05T23:09:00.972Z,88.95
2022-10-05T23:24:03.164Z,89.22
2022-10-05T23:39:05.644Z,89.53
2022-10-05T23:54:07.770Z,89.66
